Archival Weather

Snohomish County (Paine Fld)

Everett, Washington (KPAE)

Report from: Sunday, October 29, 2023 8:53 AM PDT
Current time: Friday, June 14, 2024 4:42 AM PDT

Current weather – Weather history – Daily summaries
Weather forecast

Temperature3.3°C (37.9°F)
Wind chill1.9°C (35.5°F)
Dew point-1.7°C (28.9°F)
Winds 3 kts (1.5 m/s, 3.5 mph) North-Northeast (20°)
Visibility10 mi. (16.1 km)
Clouds Sky clear
Altimeter30.48 in.Hg (1032 mB)
Relative humidity70 %
Density altitude-1,994 ft. (-608 m)
Sea-level pressure103.3 kPa (1033 mB, 30.50 in.Hg)
Remarks Automated weather observing station with precipitation discriminator
Flight conditions Visual Meteorological Conditions
Raw dataKPAE 291553Z 02003KT 10SM CLR 03/M02 A3048 RMK AO2 SLP327 T00331017
An error has occurred. This application may no longer respond until reloaded. Reload 🗙